Tongo Airport

Jump to: basic info | weather | comments

Related pages: nearby airports | nearby navaids | notams | map

Basic information (top)

Codes: GFTO
Location: lon 8.217000, lat -11.067000, elev 750 ft / 229 m msl
Status: small_airport

Weather (top)

Current conditions for Roberts International Airport 126nm (234km) SSE (rec'd 2015/04/19 20:30Z):

GLRB 192030Z 00000KT 9999 FEW014 FEW025 CB 27/25 Q1011 RMK CB-N/NE

Airport forecast for Roberts International Airport 126nm (234km) SSE (rec'd 2015/04/19 12:51Z):

TAF TAF GLRB 191000Z 1912/2018 20011KT 9000 SCT017 
      BECMG 1913/1915 23012KT 9999 
      TEMPO 1916/1920 26010KT 7000 RA/TSRA SCT004 BKN018 FEW027CB 
      BECMG 1921/1923 24005KT 9999 SCT015 FEW025CB

Latest comments (top)

No comments yet for Tongo Airport

More... (top)

See also NOTAMs and nearby airports and navaids, or visit the Tongo Airport page at the main OurAirports website..